sensor_id;sensor_type;location;lat;lon;timestamp;pressure;altitude;pressure_sealevel;temperature;humidity
48796;BME280;34607;48.520;-1.330;2022-09-09T00:00:32;99598.56;;;15.83;100.00
48796;BME280;34607;48.520;-1.330;2022-09-09T00:03:08;99598.56;;;15.83;100.00
48796;BME280;34607;48.520;-1.330;2022-09-09T00:05:44;99596.81;;;15.87;100.00
48796;BME280;34607;48.520;-1.330;2022-09-09T00:08:19;99596.88;;;15.82;100.00
48796;BME280;34607;48.520;-1.330;2022-09-09T00:10:51;99593.50;;;15.76;100.00
48796;BME280;34607;48.520;-1.330;2022-09-09T00:13:25;99590.03;;;15.75;100.00
48796;BME280;34607;48.520;-1.330;2022-09-09T00:15:55;99590.28;;;15.58;100.00
48796;BME280;34607;48.520;-1.330;2022-09-09T00:18:28;99590.16;;;15.66;100.00
48796;BME280;34607;48.520;-1.330;2022-09-09T00:21:00;99585.72;;;15.71;100.00
48796;BME280;34607;48.520;-1.330;2022-09-09T00:23:31;99571.13;;;15.59;100.00
48796;BME280;34607;48.520;-1.330;2022-09-09T00:26:04;99590.88;;;15.74;100.00
48796;BME280;34607;48.520;-1.330;2022-09-09T00:28:40;99590.16;;;15.64;100.00
48796;BME280;34607;48.520;-1.330;2022-09-09T00:31:12;99591.06;;;15.63;100.00
48796;BME280;34607;48.520;-1.330;2022-09-09T00:33:40;99573.81;;;15.54;100.00
48796;BME280;34607;48.520;-1.330;2022-09-09T00:36:13;99577.13;;;15.64;100.00
48796;BME280;34607;48.520;-1.330;2022-09-09T00:38:44;99566.13;;;15.45;100.00
48796;BME280;34607;48.520;-1.330;2022-09-09T00:41:19;99562.69;;;15.43;100.00
48796;BME280;34607;48.520;-1.330;2022-09-09T00:43:56;99576.56;;;15.45;100.00
48796;BME280;34607;48.520;-1.330;2022-09-09T00:46:43;99537.75;;;15.27;100.00
48796;BME280;34607;48.520;-1.330;2022-09-09T00:49:22;99561.03;;;15.39;100.00
48796;BME280;34607;48.520;-1.330;2022-09-09T00:51:59;99583.47;;;15.49;100.00
48796;BME280;34607;48.520;-1.330;2022-09-09T00:54:40;99561.94;;;15.35;100.00
48796;BME280;34607;48.520;-1.330;2022-09-09T00:57:23;99570.44;;;15.48;100.00
48796;BME280;34607;48.520;-1.330;2022-09-09T01:00:15;99538.47;;;15.35;100.00
48796;BME280;34607;48.520;-1.330;2022-09-09T01:02:52;99565.19;;;15.51;100.00
48796;BME280;34607;48.520;-1.330;2022-09-09T01:05:27;99570.44;;;15.49;100.00
48796;BME280;34607;48.520;-1.330;2022-09-09T01:07:57;99570.50;;;15.45;100.00
48796;BME280;34607;48.520;-1.330;2022-09-09T01:10:30;99573.94;;;15.47;100.00
48796;BME280;34607;48.520;-1.330;2022-09-09T01:13:05;99566.94;;;15.49;100.00
48796;BME280;34607;48.520;-1.330;2022-09-09T01:15:39;99568.66;;;15.50;100.00
48796;BME280;34607;48.520;-1.330;2022-09-09T01:18:10;99574.69;;;15.53;100.00
48796;BME280;34607;48.520;-1.330;2022-09-09T01:20:49;99573.88;;;15.51;100.00
48796;BME280;34607;48.520;-1.330;2022-09-09T01:23:40;99574.84;;;15.46;100.00
48796;BME280;34607;48.520;-1.330;2022-09-09T01:26:28;99565.44;;;15.35;100.00
48796;BME280;34607;48.520;-1.330;2022-09-09T01:29:01;99556.88;;;15.26;100.00
48796;BME280;34607;48.520;-1.330;2022-09-09T01:31:36;99582.13;;;15.25;100.00
48796;BME280;34607;48.520;-1.330;2022-09-09T01:34:10;99569.19;;;15.17;100.00
48796;BME280;34607;48.520;-1.330;2022-09-09T01:36:42;99570.75;;;15.28;100.00
48796;BME280;34607;48.520;-1.330;2022-09-09T01:39:11;99590.50;;;15.44;100.00
48796;BME280;34607;48.520;-1.330;2022-09-09T01:41:41;99582.69;;;15.44;100.00
48796;BME280;34607;48.520;-1.330;2022-09-09T01:44:11;99588.00;;;15.38;100.00
48796;BME280;34607;48.520;-1.330;2022-09-09T01:46:42;99587.97;;;15.40;100.00
48796;BME280;34607;48.520;-1.330;2022-09-09T01:49:16;99589.59;;;15.47;100.00
48796;BME280;34607;48.520;-1.330;2022-09-09T01:51:46;99588.81;;;15.40;100.00
48796;BME280;34607;48.520;-1.330;2022-09-09T01:54:15;99585.44;;;15.33;100.00
48796;BME280;34607;48.520;-1.330;2022-09-09T01:56:50;99589.84;;;15.30;100.00
48796;BME280;34607;48.520;-1.330;2022-09-09T01:59:33;99572.59;;;15.21;100.00
48796;BME280;34607;48.520;-1.330;2022-09-09T02:02:10;99590.75;;;15.29;100.00
48796;BME280;34607;48.520;-1.330;2022-09-09T02:04:45;99581.13;;;15.32;100.00
48796;BME280;34607;48.520;-1.330;2022-09-09T02:07:34;99574.44;;;15.14;100.00
48796;BME280;34607;48.520;-1.330;2022-09-09T02:10:12;99582.22;;;15.17;100.00
48796;BME280;34607;48.520;-1.330;2022-09-09T02:12:53;99589.22;;;15.15;100.00
48796;BME280;34607;48.520;-1.330;2022-09-09T02:15:26;99592.00;;;15.03;100.00
48796;BME280;34607;48.520;-1.330;2022-09-09T02:17:57;99593.69;;;15.06;100.00
48796;BME280;34607;48.520;-1.330;2022-09-09T02:20:25;99586.63;;;15.14;100.00
48796;BME280;34607;48.520;-1.330;2022-09-09T02:22:57;99558.22;;;14.92;100.00
48796;BME280;34607;48.520;-1.330;2022-09-09T02:25:28;99584.03;;;15.12;100.00
48796;BME280;34607;48.520;-1.330;2022-09-09T02:28:07;99579.78;;;15.05;100.00
48796;BME280;34607;48.520;-1.330;2022-09-09T02:30:37;99589.25;;;15.12;100.00
48796;BME280;34607;48.520;-1.330;2022-09-09T02:33:07;99592.69;;;15.14;100.00
48796;BME280;34607;48.520;-1.330;2022-09-09T02:35:50;99595.38;;;15.11;100.00
48796;BME280;34607;48.520;-1.330;2022-09-09T02:38:21;99591.84;;;15.12;100.00
48796;BME280;34607;48.520;-1.330;2022-09-09T02:41:05;99591.03;;;15.10;100.00
48796;BME280;34607;48.520;-1.330;2022-09-09T02:43:35;99593.56;;;15.15;100.00
48796;BME280;34607;48.520;-1.330;2022-09-09T02:46:14;99597.00;;;15.17;100.00
48796;BME280;34607;48.520;-1.330;2022-09-09T02:48:52;99594.41;;;15.15;100.00
48796;BME280;34607;48.520;-1.330;2022-09-09T02:51:35;99577.19;;;15.05;100.00
48796;BME280;34607;48.520;-1.330;2022-09-09T02:54:10;99593.63;;;15.10;100.00
48796;BME280;34607;48.520;-1.330;2022-09-09T02:56:47;99582.41;;;15.05;100.00
48796;BME280;34607;48.520;-1.330;2022-09-09T02:59:20;99587.63;;;15.05;100.00
48796;BME280;34607;48.520;-1.330;2022-09-09T03:01:47;99593.69;;;15.06;100.00
48796;BME280;34607;48.520;-1.330;2022-09-09T03:04:14;99578.16;;;14.98;100.00
48796;BME280;34607;48.520;-1.330;2022-09-09T03:06:42;99593.69;;;15.06;100.00
48796;BME280;34607;48.520;-1.330;2022-09-09T03:09:16;99596.28;;;15.07;100.00
48796;BME280;34607;48.520;-1.330;2022-09-09T03:11:43;99573.88;;;14.92;100.00
48796;BME280;34607;48.520;-1.330;2022-09-09T03:14:13;99591.03;;;15.09;100.00
48796;BME280;34607;48.520;-1.330;2022-09-09T03:16:41;99579.78;;;15.05;100.00
48796;BME280;34607;48.520;-1.330;2022-09-09T03:19:09;99597.09;;;15.09;100.00
48796;BME280;34607;48.520;-1.330;2022-09-09T03:21:36;99599.72;;;15.09;100.00
48796;BME280;34607;48.520;-1.330;2022-09-09T03:24:05;99587.63;;;15.04;100.00
48796;BME280;34607;48.520;-1.330;2022-09-09T03:26:32;99585.00;;;15.07;100.00
48796;BME280;34607;48.520;-1.330;2022-09-09T03:29:00;99595.28;;;15.16;100.00
48796;BME280;34607;48.520;-1.330;2022-09-09T03:31:28;99602.31;;;15.09;100.00
48796;BME280;34607;48.520;-1.330;2022-09-09T03:33:59;99596.41;;;14.98;100.00
48796;BME280;34607;48.520;-1.330;2022-09-09T03:36:32;99601.63;;;14.98;100.00
48796;BME280;34607;48.520;-1.330;2022-09-09T03:38:59;99611.84;;;15.12;100.00
48796;BME280;34607;48.520;-1.330;2022-09-09T03:41:30;99601.38;;;15.16;100.00
48796;BME280;34607;48.520;-1.330;2022-09-09T03:43:59;99603.97;;;15.16;100.00
48796;BME280;34607;48.520;-1.330;2022-09-09T03:46:30;99593.63;;;15.10;100.00
48796;BME280;34607;48.520;-1.330;2022-09-09T03:49:00;99616.13;;;15.17;100.00
48796;BME280;34607;48.520;-1.330;2022-09-09T03:51:30;99606.75;;;15.04;100.00
48796;BME280;34607;48.520;-1.330;2022-09-09T03:53:57;99609.44;;;15.00;100.00
48796;BME280;34607;48.520;-1.330;2022-09-09T03:56:26;99599.84;;;15.00;100.00
48796;BME280;34607;48.520;-1.330;2022-09-09T03:58:53;99603.97;;;15.16;100.00
48796;BME280;34607;48.520;-1.330;2022-09-09T04:01:20;99554.81;;;14.89;100.00
48796;BME280;34607;48.520;-1.330;2022-09-09T04:03:47;99567.78;;;14.95;100.00
48796;BME280;34607;48.520;-1.330;2022-09-09T04:06:17;99581.59;;;15.02;100.00
48796;BME280;34607;48.520;-1.330;2022-09-09T04:08:46;99599.59;;;15.19;100.00
48796;BME280;34607;48.520;-1.330;2022-09-09T04:11:15;99604.78;;;15.22;100.00
48796;BME280;34607;48.520;-1.330;2022-09-09T04:13:45;99603.03;;;15.21;100.00
48796;BME280;34607;48.520;-1.330;2022-09-09T04:16:12;99596.19;;;15.15;100.00
48796;BME280;34607;48.520;-1.330;2022-09-09T04:18:41;99612.53;;;15.25;100.00
48796;BME280;34607;48.520;-1.330;2022-09-09T04:21:10;99606.59;;;15.16;100.00
48796;BME280;34607;48.520;-1.330;2022-09-09T04:23:40;99604.81;;;15.19;100.00
48796;BME280;34607;48.520;-1.330;2022-09-09T04:26:08;99610.81;;;15.24;100.00
48796;BME280;34607;48.520;-1.330;2022-09-09T04:28:36;99601.22;;;15.26;100.00
48796;BME280;34607;48.520;-1.330;2022-09-09T04:31:11;99604.66;;;15.28;100.00
48796;BME280;34607;48.520;-1.330;2022-09-09T04:33:40;99607.28;;;15.26;100.00
48796;BME280;34607;48.520;-1.330;2022-09-09T04:36:09;99609.00;;;15.29;100.00
48796;BME280;34607;48.520;-1.330;2022-09-09T04:38:36;99603.03;;;15.22;100.00
48796;BME280;34607;48.520;-1.330;2022-09-09T04:41:05;99609.88;;;15.28;100.00
48796;BME280;34607;48.520;-1.330;2022-09-09T04:43:34;99606.53;;;15.20;100.00
48796;BME280;34607;48.520;-1.330;2022-09-09T04:46:06;99600.53;;;15.13;100.00
48796;BME280;34607;48.520;-1.330;2022-09-09T04:48:33;99599.63;;;15.17;100.00
48796;BME280;34607;48.520;-1.330;2022-09-09T04:51:05;99617.81;;;15.22;100.00
48796;BME280;34607;48.520;-1.330;2022-09-09T04:53:33;99610.06;;;15.15;100.00
48796;BME280;34607;48.520;-1.330;2022-09-09T04:56:02;99608.25;;;15.21;100.00
48796;BME280;34607;48.520;-1.330;2022-09-09T04:58:33;99611.69;;;15.23;100.00
48796;BME280;34607;48.520;-1.330;2022-09-09T05:01:06;99609.91;;;15.25;100.00
48796;BME280;34607;48.520;-1.330;2022-09-09T05:03:34;99609.13;;;15.20;100.00
48796;BME280;34607;48.520;-1.330;2022-09-09T05:06:04;99611.72;;;15.20;100.00
48796;BME280;34607;48.520;-1.330;2022-09-09T05:08:32;99598.03;;;15.05;100.00
48796;BME280;34607;48.520;-1.330;2022-09-09T05:10:59;99613.66;;;15.08;100.00
48796;BME280;34607;48.520;-1.330;2022-09-09T05:13:26;99625.72;;;15.15;100.00
48796;BME280;34607;48.520;-1.330;2022-09-09T05:15:55;99623.19;;;15.08;100.00
48796;BME280;34607;48.520;-1.330;2022-09-09T05:18:22;99614.56;;;15.04;100.00
48796;BME280;34607;48.520;-1.330;2022-09-09T05:20:49;99598.13;;;14.99;100.00
48796;BME280;34607;48.520;-1.330;2022-09-09T05:23:18;99628.25;;;15.22;100.00
48796;BME280;34607;48.520;-1.330;2022-09-09T05:25:55;99625.56;;;15.25;100.00
48796;BME280;34607;48.520;-1.330;2022-09-09T05:28:23;99636.94;;;15.22;100.00
48796;BME280;34607;48.520;-1.330;2022-09-09T05:30:57;99635.16;;;15.23;100.00
48796;BME280;34607;48.520;-1.330;2022-09-09T05:33:27;99643.91;;;15.22;100.00
48796;BME280;34607;48.520;-1.330;2022-09-09T05:35:57;99627.50;;;15.12;100.00
48796;BME280;34607;48.520;-1.330;2022-09-09T05:38:24;99647.34;;;15.22;100.00
48796;BME280;34607;48.520;-1.330;2022-09-09T05:40:52;99641.25;;;15.23;100.00
48796;BME280;34607;48.520;-1.330;2022-09-09T05:43:19;99626.59;;;15.14;100.00
48796;BME280;34607;48.520;-1.330;2022-09-09T05:45:47;99645.72;;;15.15;100.00
48796;BME280;34607;48.520;-1.330;2022-09-09T05:48:16;99647.38;;;15.21;100.00
48796;BME280;34607;48.520;-1.330;2022-09-09T05:50:52;99648.22;;;15.23;100.00
48796;BME280;34607;48.520;-1.330;2022-09-09T05:53:20;99648.22;;;15.23;100.00
48796;BME280;34607;48.520;-1.330;2022-09-09T05:55:47;99638.72;;;15.17;100.00
48796;BME280;34607;48.520;-1.330;2022-09-09T05:58:14;99635.28;;;15.16;100.00
48796;BME280;34607;48.520;-1.330;2022-09-09T06:00:43;99653.53;;;15.16;100.00
48796;BME280;34607;48.520;-1.330;2022-09-09T06:03:11;99656.13;;;15.16;100.00
48796;BME280;34607;48.520;-1.330;2022-09-09T06:05:40;99643.91;;;15.20;100.00
48796;BME280;34607;48.520;-1.330;2022-09-09T06:08:07;99652.63;;;15.17;100.00
48796;BME280;34607;48.520;-1.330;2022-09-09T06:10:34;99644.81;;;15.17;100.00
48796;BME280;34607;48.520;-1.330;2022-09-09T06:13:02;99656.19;;;15.13;100.00
48796;BME280;34607;48.520;-1.330;2022-09-09T06:15:29;99657.00;;;15.17;100.00
48796;BME280;34607;48.520;-1.330;2022-09-09T06:17:57;99663.03;;;15.21;100.00
48796;BME280;34607;48.520;-1.330;2022-09-09T06:20:24;99656.03;;;15.23;100.00
48796;BME280;34607;48.520;-1.330;2022-09-09T06:22:53;99674.25;;;15.27;100.00
48796;BME280;34607;48.520;-1.330;2022-09-09T06:25:20;99669.13;;;15.20;100.00
48796;BME280;34607;48.520;-1.330;2022-09-09T06:27:48;99678.66;;;15.21;100.00
48796;BME280;34607;48.520;-1.330;2022-09-09T06:30:16;99678.66;;;15.22;100.00
48796;BME280;34607;48.520;-1.330;2022-09-09T06:32:44;99682.91;;;15.28;100.00
48796;BME280;34607;48.520;-1.330;2022-09-09T06:35:11;99684.72;;;15.23;100.00
48796;BME280;34607;48.520;-1.330;2022-09-09T06:37:39;99679.50;;;15.23;100.00
48796;BME280;34607;48.520;-1.330;2022-09-09T06:40:09;99694.13;;;15.34;100.00
48796;BME280;34607;48.520;-1.330;2022-09-09T06:42:36;99694.97;;;15.35;100.00
48796;BME280;34607;48.520;-1.330;2022-09-09T06:45:21;99698.47;;;15.37;100.00
48796;BME280;34607;48.520;-1.330;2022-09-09T06:47:54;99688.09;;;15.31;100.00
48796;BME280;34607;48.520;-1.330;2022-09-09T06:50:22;99682.81;;;15.37;100.00
48796;BME280;34607;48.520;-1.330;2022-09-09T06:52:49;99701.81;;;15.44;100.00
48796;BME280;34607;48.520;-1.330;2022-09-09T06:55:19;99705.28;;;15.46;100.00
48796;BME280;34607;48.520;-1.330;2022-09-09T06:57:46;99701.75;;;15.48;100.00
48796;BME280;34607;48.520;-1.330;2022-09-09T07:00:21;99703.34;;;15.60;100.00
48796;BME280;34607;48.520;-1.330;2022-09-09T07:02:50;99704.91;;;15.72;100.00
48796;BME280;34607;48.520;-1.330;2022-09-09T07:05:18;99710.91;;;15.80;100.00
48796;BME280;34607;48.520;-1.330;2022-09-09T07:07:46;99716.00;;;15.86;100.00
48796;BME280;34607;48.520;-1.330;2022-09-09T07:10:19;99691.59;;;15.92;100.00
48796;BME280;34607;48.520;-1.330;2022-09-09T07:12:50;99691.41;;;16.01;100.00
48796;BME280;34607;48.520;-1.330;2022-09-09T07:15:18;99713.88;;;16.12;100.00
48796;BME280;34607;48.520;-1.330;2022-09-09T07:17:47;99703.47;;;16.08;100.00
48796;BME280;34607;48.520;-1.330;2022-09-09T07:20:15;99715.53;;;16.16;100.00
48796;BME280;34607;48.520;-1.330;2022-09-09T07:22:43;99723.41;;;16.14;100.00
48796;BME280;34607;48.520;-1.330;2022-09-09T07:25:11;99704.34;;;16.09;100.00
48796;BME280;34607;48.520;-1.330;2022-09-09T07:27:39;99721.47;;;16.25;100.00
48796;BME280;34607;48.520;-1.330;2022-09-09T07:30:08;99722.16;;;16.38;100.00
48796;BME280;34607;48.520;-1.330;2022-09-09T07:32:35;99726.16;;;16.56;100.00
48796;BME280;34607;48.520;-1.330;2022-09-09T07:35:02;99718.00;;;16.75;100.00
48796;BME280;34607;48.520;-1.330;2022-09-09T07:37:29;99722.22;;;16.80;100.00
48796;BME280;34607;48.520;-1.330;2022-09-09T07:39:57;99735.97;;;16.93;100.00
48796;BME280;34607;48.520;-1.330;2022-09-09T07:42:24;99726.03;;;17.11;100.00
48796;BME280;34607;48.520;-1.330;2022-09-09T07:44:53;99705.16;;;17.08;100.00
48796;BME280;34607;48.520;-1.330;2022-09-09T07:47:21;99740.31;;;17.36;100.00
48796;BME280;34607;48.520;-1.330;2022-09-09T07:49:50;99734.75;;;17.52;100.00
48796;BME280;34607;48.520;-1.330;2022-09-09T07:52:25;99738.19;;;17.54;100.00
48796;BME280;34607;48.520;-1.330;2022-09-09T07:54:55;99730.03;;;17.68;100.00
48796;BME280;34607;48.520;-1.330;2022-09-09T07:57:23;99713.97;;;17.82;100.00
48796;BME280;34607;48.520;-1.330;2022-09-09T07:59:53;99744.72;;;18.12;100.00
48796;BME280;34607;48.520;-1.330;2022-09-09T08:02:22;99735.78;;;18.20;99.29
48796;BME280;34607;48.520;-1.330;2022-09-09T08:04:49;99734.38;;;18.42;98.28
48796;BME280;34607;48.520;-1.330;2022-09-09T08:07:20;99746.50;;;18.46;97.07
48796;BME280;34607;48.520;-1.330;2022-09-09T08:09:52;99749.13;;;18.46;97.12
48796;BME280;34607;48.520;-1.330;2022-09-09T08:12:26;99728.88;;;18.51;96.74
48796;BME280;34607;48.520;-1.330;2022-09-09T08:14:55;99736.53;;;18.59;95.80
48796;BME280;34607;48.520;-1.330;2022-09-09T08:17:26;99746.41;;;18.84;95.60
48796;BME280;34607;48.520;-1.330;2022-09-09T08:19:53;99752.69;;;19.09;94.61
48796;BME280;34607;48.520;-1.330;2022-09-09T08:22:24;99766.31;;;19.22;93.51
48796;BME280;34607;48.520;-1.330;2022-09-09T08:24:51;99742.47;;;19.30;93.49
48796;BME280;34607;48.520;-1.330;2022-09-09T08:27:19;99765.09;;;19.34;92.93
48796;BME280;34607;48.520;-1.330;2022-09-09T08:29:47;99766.03;;;19.33;93.37
48796;BME280;34607;48.520;-1.330;2022-09-09T08:32:15;99756.75;;;19.21;93.40
48796;BME280;34607;48.520;-1.330;2022-09-09T08:34:45;99763.97;;;19.13;93.28
48796;BME280;34607;48.520;-1.330;2022-09-09T08:37:15;99761.22;;;19.18;93.07
48796;BME280;34607;48.520;-1.330;2022-09-09T08:39:43;99749.84;;;19.17;93.02
48796;BME280;34607;48.520;-1.330;2022-09-09T08:42:29;99769.22;;;19.13;91.91
48796;BME280;34607;48.520;-1.330;2022-09-09T08:45:12;99749.84;;;18.86;92.80
48796;BME280;34607;48.520;-1.330;2022-09-09T08:47:51;99789.16;;;19.19;92.91
48796;BME280;34607;48.520;-1.330;2022-09-09T08:50:25;99776.13;;;19.16;92.44
48796;BME280;34607;48.520;-1.330;2022-09-09T08:53:02;99781.25;;;19.20;93.57
48796;BME280;34607;48.520;-1.330;2022-09-09T08:55:39;99777.09;;;19.43;92.44
48796;BME280;34607;48.520;-1.330;2022-09-09T08:58:13;99792.84;;;19.43;92.07
48796;BME280;34607;48.520;-1.330;2022-09-09T09:01:02;99790.06;;;19.19;91.58
48796;BME280;34607;48.520;-1.330;2022-09-09T09:03:48;99786.78;;;19.11;92.45
48796;BME280;34607;48.520;-1.330;2022-09-09T09:06:26;99800.59;;;19.18;92.47
48796;BME280;34607;48.520;-1.330;2022-09-09T09:09:00;99794.00;;;19.03;92.73
48796;BME280;34607;48.520;-1.330;2022-09-09T09:11:35;99798.34;;;19.04;93.30
48796;BME280;34607;48.520;-1.330;2022-09-09T09:14:08;99794.03;;;19.01;92.68
48796;BME280;34607;48.520;-1.330;2022-09-09T09:16:42;99804.94;;;18.86;92.23
48796;BME280;34607;48.520;-1.330;2022-09-09T09:19:16;99781.56;;;18.77;93.22
48796;BME280;34607;48.520;-1.330;2022-09-09T09:21:51;99801.75;;;19.07;92.06
48796;BME280;34607;48.520;-1.330;2022-09-09T09:24:27;99803.22;;;19.18;91.33
48796;BME280;34607;48.520;-1.330;2022-09-09T09:27:00;99806.66;;;19.20;92.15
48796;BME280;34607;48.520;-1.330;2022-09-09T09:29:34;99812.13;;;19.43;91.51
48796;BME280;34607;48.520;-1.330;2022-09-09T09:32:03;99816.88;;;19.90;90.29
48796;BME280;34607;48.520;-1.330;2022-09-09T09:34:33;99809.06;;;20.17;88.77
48796;BME280;34607;48.520;-1.330;2022-09-09T09:37:01;99815.50;;;20.07;88.61
48796;BME280;34607;48.520;-1.330;2022-09-09T09:39:32;99830.56;;;20.01;89.07
48796;BME280;34607;48.520;-1.330;2022-09-09T09:42:09;99824.00;;;20.15;88.43
48796;BME280;34607;48.520;-1.330;2022-09-09T09:44:41;99827.78;;;20.34;88.14
48796;BME280;34607;48.520;-1.330;2022-09-09T09:47:15;99827.47;;;20.44;87.90
48796;BME280;34607;48.520;-1.330;2022-09-09T09:49:55;99814.31;;;20.44;87.48
48796;BME280;34607;48.520;-1.330;2022-09-09T09:52:26;99820.59;;;20.39;86.92
48796;BME280;34607;48.520;-1.330;2022-09-09T09:54:57;99824.91;;;20.40;87.12
48796;BME280;34607;48.520;-1.330;2022-09-09T09:57:28;99827.72;;;20.36;87.40
48796;BME280;34607;48.520;-1.330;2022-09-09T10:00:03;99817.16;;;20.37;86.78
48796;BME280;34607;48.520;-1.330;2022-09-09T10:02:41;99833.56;;;20.44;87.10
48796;BME280;34607;48.520;-1.330;2022-09-09T10:05:18;99840.66;;;20.42;86.93
48796;BME280;34607;48.520;-1.330;2022-09-09T10:08:00;99839.16;;;20.07;87.21
48796;BME280;34607;48.520;-1.330;2022-09-09T10:10:39;99837.78;;;19.95;88.37
48796;BME280;34607;48.520;-1.330;2022-09-09T10:13:13;99831.44;;;20.29;88.84
48796;BME280;34607;48.520;-1.330;2022-09-09T10:15:51;99827.13;;;20.81;85.94
48796;BME280;34607;48.520;-1.330;2022-09-09T10:18:36;99804.69;;;21.20;82.73
48796;BME280;34607;48.520;-1.330;2022-09-09T10:21:20;99837.25;;;21.66;82.92
48796;BME280;34607;48.520;-1.330;2022-09-09T10:24:11;99833.44;;;21.97;81.97
48796;BME280;34607;48.520;-1.330;2022-09-09T10:26:47;99842.88;;;22.04;80.92
48796;BME280;34607;48.520;-1.330;2022-09-09T10:29:44;99850.28;;;21.70;80.46
48796;BME280;34607;48.520;-1.330;2022-09-09T10:32:33;99849.34;;;21.23;82.12
48796;BME280;34607;48.520;-1.330;2022-09-09T10:35:10;99841.59;;;20.94;83.24
48796;BME280;34607;48.520;-1.330;2022-09-09T10:37:53;99844.38;;;21.15;82.73
48796;BME280;34607;48.520;-1.330;2022-09-09T10:40:31;99854.19;;;21.60;82.69
48796;BME280;34607;48.520;-1.330;2022-09-09T10:43:01;99852.72;;;21.99;79.20
48796;BME280;34607;48.520;-1.330;2022-09-09T10:45:35;99841.84;;;21.61;80.79
48796;BME280;34607;48.520;-1.330;2022-09-09T10:51:14;99856.00;;;20.83;81.97
48796;BME280;34607;48.520;-1.330;2022-09-09T10:53:53;99869.84;;;20.89;82.14
48796;BME280;34607;48.520;-1.330;2022-09-09T10:56:30;99861.53;;;20.75;83.11
48796;BME280;34607;48.520;-1.330;2022-09-09T10:59:00;99871.91;;;20.53;83.03
48796;BME280;34607;48.520;-1.330;2022-09-09T11:01:32;99865.84;;;20.49;83.59
48796;BME280;34607;48.520;-1.330;2022-09-09T11:04:05;99876.94;;;20.59;83.19
48796;BME280;34607;48.520;-1.330;2022-09-09T11:06:39;99867.53;;;20.52;83.35
48796;BME280;34607;48.520;-1.330;2022-09-09T11:09:15;99877.53;;;20.40;83.46
48796;BME280;34607;48.520;-1.330;2022-09-09T11:11:46;99869.03;;;20.59;83.93
48796;BME280;34607;48.520;-1.330;2022-09-09T11:14:21;99857.69;;;21.10;82.09
48796;BME280;34607;48.520;-1.330;2022-09-09T11:16:50;99862.06;;;21.35;79.12
48796;BME280;34607;48.520;-1.330;2022-09-09T11:19:24;99858.53;;;21.36;80.59
48796;BME280;34607;48.520;-1.330;2022-09-09T11:21:53;99866.03;;;21.48;80.35
48796;BME280;34607;48.520;-1.330;2022-09-09T11:24:25;99840.88;;;21.87;78.64
48796;BME280;34607;48.520;-1.330;2022-09-09T11:26:58;99847.41;;;22.44;77.19
48796;BME280;34607;48.520;-1.330;2022-09-09T11:29:49;99829.44;;;22.75;74.88
48796;BME280;34607;48.520;-1.330;2022-09-09T11:32:32;99865.03;;;23.48;74.19
48796;BME280;34607;48.520;-1.330;2022-09-09T11:35:11;99847.69;;;22.81;74.74
48796;BME280;34607;48.520;-1.330;2022-09-09T11:38:15;99882.59;;;22.21;75.50
48796;BME280;34607;48.520;-1.330;2022-09-09T11:40:45;99886.44;;;21.67;79.71
48796;BME280;34607;48.520;-1.330;2022-09-09T11:43:15;99881.34;;;21.37;82.55
48796;BME280;34607;48.520;-1.330;2022-09-09T11:45:51;99879.56;;;21.38;83.54
48796;BME280;34607;48.520;-1.330;2022-09-09T11:48:28;99877.41;;;21.24;83.50
48796;BME280;34607;48.520;-1.330;2022-09-09T11:51:01;99876.91;;;21.12;84.15
48796;BME280;34607;48.520;-1.330;2022-09-09T11:53:29;99871.75;;;21.09;84.44
48796;BME280;34607;48.520;-1.330;2022-09-09T11:56:12;99847.66;;;21.45;83.45
48796;BME280;34607;48.520;-1.330;2022-09-09T11:58:44;99867.47;;;21.32;83.34
48796;BME280;34607;48.520;-1.330;2022-09-09T12:01:38;99885.06;;;21.06;84.13
48796;BME280;34607;48.520;-1.330;2022-09-09T12:04:26;99880.91;;;20.72;84.52
48796;BME280;34607;48.520;-1.330;2022-09-09T12:06:58;99899.28;;;20.46;85.90
48796;BME280;34607;48.520;-1.330;2022-09-09T12:09:33;99896.13;;;20.34;86.50
48796;BME280;34607;48.520;-1.330;2022-09-09T12:12:23;99896.44;;;20.24;85.97
48796;BME280;34607;48.520;-1.330;2022-09-09T12:15:02;99901.91;;;20.46;87.33
48796;BME280;34607;48.520;-1.330;2022-09-09T12:17:31;99879.25;;;21.22;85.29
48796;BME280;34607;48.520;-1.330;2022-09-09T12:20:10;99886.13;;;21.98;81.60
48796;BME280;34607;48.520;-1.330;2022-09-09T12:22:46;99879.53;;;22.76;78.97
48796;BME280;34607;48.520;-1.330;2022-09-09T12:25:26;99886.78;;;23.14;77.27
48796;BME280;34607;48.520;-1.330;2022-09-09T12:28:04;99882.41;;;23.33;75.07
48796;BME280;34607;48.520;-1.330;2022-09-09T12:30:39;99882.50;;;22.89;77.75
48796;BME280;34607;48.520;-1.330;2022-09-09T12:33:11;99892.94;;;22.28;80.30
48796;BME280;34607;48.520;-1.330;2022-09-09T12:35:40;99892.03;;;21.81;82.06
48796;BME280;34607;48.520;-1.330;2022-09-09T12:38:13;99879.34;;;21.44;83.03
48796;BME280;34607;48.520;-1.330;2022-09-09T12:40:53;99885.41;;;21.21;83.11
48796;BME280;34607;48.520;-1.330;2022-09-09T12:43:24;99887.69;;;21.57;83.35
48796;BME280;34607;48.520;-1.330;2022-09-09T12:45:56;99893.66;;;22.09;81.76
48796;BME280;34607;48.520;-1.330;2022-09-09T12:48:27;99890.13;;;22.54;79.91
48796;BME280;34607;48.520;-1.330;2022-09-09T12:50:57;99892.81;;;22.95;79.48
48796;BME280;34607;48.520;-1.330;2022-09-09T12:53:27;99879.66;;;23.16;77.89
48796;BME280;34607;48.520;-1.330;2022-09-09T12:55:58;99888.28;;;22.99;78.08
48796;BME280;34607;48.520;-1.330;2022-09-09T12:58:28;99894.97;;;22.43;79.05
48796;BME280;34607;48.520;-1.330;2022-09-09T13:00:59;99893.41;;;21.92;80.05
48796;BME280;34607;48.520;-1.330;2022-09-09T13:03:28;99903.13;;;21.66;80.95
48796;BME280;34607;48.520;-1.330;2022-09-09T13:05:58;99910.16;;;21.17;82.33
48796;BME280;34607;48.520;-1.330;2022-09-09T13:08:26;99908.63;;;21.09;82.72
48796;BME280;34607;48.520;-1.330;2022-09-09T13:10:56;99910.72;;;21.25;82.89
48796;BME280;34607;48.520;-1.330;2022-09-09T13:13:28;99894.41;;;21.89;81.24